sensor_id;sensor_type;location;lat;lon;timestamp;temperature;humidity
17986;DHT22;9118;48.122;11.546;2023-03-14T00:01:09;11.60;99.90
17986;DHT22;9118;48.122;11.546;2023-03-14T00:03:37;11.80;99.90
17986;DHT22;9118;48.122;11.546;2023-03-14T00:06:10;11.80;99.90
17986;DHT22;9118;48.122;11.546;2023-03-14T00:08:38;11.90;99.90
17986;DHT22;9118;48.122;11.546;2023-03-14T00:11:07;11.90;99.90
17986;DHT22;9118;48.122;11.546;2023-03-14T00:13:35;11.80;99.90
17986;DHT22;9118;48.122;11.546;2023-03-14T00:16:04;11.90;99.90
17986;DHT22;9118;48.122;11.546;2023-03-14T00:18:33;11.80;99.90
17986;DHT22;9118;48.122;11.546;2023-03-14T00:21:01;12.00;99.90
17986;DHT22;9118;48.122;11.546;2023-03-14T00:23:34;11.80;99.90
17986;DHT22;9118;48.122;11.546;2023-03-14T00:26:03;12.00;99.90
17986;DHT22;9118;48.122;11.546;2023-03-14T00:28:32;11.90;99.90
17986;DHT22;9118;48.122;11.546;2023-03-14T00:31:02;12.00;99.90
17986;DHT22;9118;48.122;11.546;2023-03-14T00:33:29;12.40;99.90
17986;DHT22;9118;48.122;11.546;2023-03-14T00:35:58;12.00;99.90
17986;DHT22;9118;48.122;11.546;2023-03-14T00:38:26;11.80;99.90
17986;DHT22;9118;48.122;11.546;2023-03-14T00:40:56;12.10;99.90
17986;DHT22;9118;48.122;11.546;2023-03-14T00:43:23;11.90;99.90
17986;DHT22;9118;48.122;11.546;2023-03-14T00:45:51;12.00;99.90
17986;DHT22;9118;48.122;11.546;2023-03-14T00:48:19;12.00;99.90
17986;DHT22;9118;48.122;11.546;2023-03-14T00:50:47;12.00;99.90
17986;DHT22;9118;48.122;11.546;2023-03-14T00:53:15;12.00;99.90
17986;DHT22;9118;48.122;11.546;2023-03-14T00:55:44;12.00;99.90
17986;DHT22;9118;48.122;11.546;2023-03-14T00:58:14;12.30;99.90
17986;DHT22;9118;48.122;11.546;2023-03-14T01:00:45;12.00;99.90
17986;DHT22;9118;48.122;11.546;2023-03-14T01:03:13;12.20;99.90
17986;DHT22;9118;48.122;11.546;2023-03-14T01:05:41;12.10;99.90
17986;DHT22;9118;48.122;11.546;2023-03-14T01:08:09;11.80;99.90
17986;DHT22;9118;48.122;11.546;2023-03-14T01:10:40;11.90;99.90
17986;DHT22;9118;48.122;11.546;2023-03-14T01:13:08;11.90;99.90
17986;DHT22;9118;48.122;11.546;2023-03-14T01:15:37;12.60;99.90
17986;DHT22;9118;48.122;11.546;2023-03-14T01:18:06;11.60;99.90
17986;DHT22;9118;48.122;11.546;2023-03-14T01:20:34;11.70;99.90
17986;DHT22;9118;48.122;11.546;2023-03-14T01:23:01;12.00;99.90
17986;DHT22;9118;48.122;11.546;2023-03-14T01:25:28;12.00;99.90
17986;DHT22;9118;48.122;11.546;2023-03-14T01:27:56;11.80;99.90
17986;DHT22;9118;48.122;11.546;2023-03-14T01:30:26;11.90;99.90
17986;DHT22;9118;48.122;11.546;2023-03-14T01:32:55;12.00;99.90
17986;DHT22;9118;48.122;11.546;2023-03-14T01:35:23;11.90;99.90
17986;DHT22;9118;48.122;11.546;2023-03-14T01:37:50;10.80;99.90
17986;DHT22;9118;48.122;11.546;2023-03-14T01:40:17;11.80;99.90
17986;DHT22;9118;48.122;11.546;2023-03-14T01:42:45;11.70;99.90
17986;DHT22;9118;48.122;11.546;2023-03-14T01:46:02;12.10;99.90
17986;DHT22;9118;48.122;11.546;2023-03-14T01:48:43;11.80;99.90
17986;DHT22;9118;48.122;11.546;2023-03-14T01:51:14;11.50;99.90
17986;DHT22;9118;48.122;11.546;2023-03-14T01:53:42;11.30;99.90
17986;DHT22;9118;48.122;11.546;2023-03-14T01:56:13;11.20;99.90
17986;DHT22;9118;48.122;11.546;2023-03-14T01:58:42;11.10;99.90
17986;DHT22;9118;48.122;11.546;2023-03-14T02:01:09;10.80;99.90
17986;DHT22;9118;48.122;11.546;2023-03-14T02:03:43;10.70;99.90
17986;DHT22;9118;48.122;11.546;2023-03-14T02:06:11;11.00;99.90
17986;DHT22;9118;48.122;11.546;2023-03-14T02:08:40;10.60;99.90
17986;DHT22;9118;48.122;11.546;2023-03-14T02:11:08;10.60;99.90
17986;DHT22;9118;48.122;11.546;2023-03-14T02:13:35;10.50;99.90
17986;DHT22;9118;48.122;11.546;2023-03-14T02:16:03;10.90;99.90
17986;DHT22;9118;48.122;11.546;2023-03-14T02:18:30;10.20;99.90
17986;DHT22;9118;48.122;11.546;2023-03-14T02:21:01;10.20;99.90
17986;DHT22;9118;48.122;11.546;2023-03-14T02:23:38;10.00;99.90
17986;DHT22;9118;48.122;11.546;2023-03-14T02:26:13;10.10;99.90
17986;DHT22;9118;48.122;11.546;2023-03-14T02:28:43;10.10;99.90
17986;DHT22;9118;48.122;11.546;2023-03-14T02:31:10;10.30;99.90
17986;DHT22;9118;48.122;11.546;2023-03-14T02:33:38;10.30;99.90
17986;DHT22;9118;48.122;11.546;2023-03-14T02:36:08;10.80;99.90
17986;DHT22;9118;48.122;11.546;2023-03-14T02:38:41;10.20;99.90
17986;DHT22;9118;48.122;11.546;2023-03-14T02:41:12;10.30;99.90
17986;DHT22;9118;48.122;11.546;2023-03-14T02:43:39;10.20;99.90
17986;DHT22;9118;48.122;11.546;2023-03-14T02:46:10;10.00;99.90
17986;DHT22;9118;48.122;11.546;2023-03-14T02:48:42;10.30;99.90
17986;DHT22;9118;48.122;11.546;2023-03-14T02:51:10;10.30;99.90
17986;DHT22;9118;48.122;11.546;2023-03-14T02:53:39;10.20;99.90
17986;DHT22;9118;48.122;11.546;2023-03-14T02:56:08;10.10;99.90
17986;DHT22;9118;48.122;11.546;2023-03-14T02:58:35;10.00;99.90
17986;DHT22;9118;48.122;11.546;2023-03-14T03:01:03;10.00;99.90
17986;DHT22;9118;48.122;11.546;2023-03-14T03:03:31;9.90;99.90
17986;DHT22;9118;48.122;11.546;2023-03-14T03:05:58;10.00;99.90
17986;DHT22;9118;48.122;11.546;2023-03-14T03:08:27;10.00;99.90
17986;DHT22;9118;48.122;11.546;2023-03-14T03:10:54;9.90;99.90
17986;DHT22;9118;48.122;11.546;2023-03-14T03:13:21;9.90;99.90
17986;DHT22;9118;48.122;11.546;2023-03-14T03:15:48;9.90;99.90
17986;DHT22;9118;48.122;11.546;2023-03-14T03:18:16;9.90;99.90
17986;DHT22;9118;48.122;11.546;2023-03-14T03:20:44;10.30;99.90
17986;DHT22;9118;48.122;11.546;2023-03-14T03:23:11;9.90;99.90
17986;DHT22;9118;48.122;11.546;2023-03-14T03:25:39;10.00;99.90
17986;DHT22;9118;48.122;11.546;2023-03-14T03:28:06;10.00;99.90
17986;DHT22;9118;48.122;11.546;2023-03-14T03:30:37;10.00;99.90
17986;DHT22;9118;48.122;11.546;2023-03-14T03:33:04;9.90;99.90
17986;DHT22;9118;48.122;11.546;2023-03-14T03:35:31;10.00;99.90
17986;DHT22;9118;48.122;11.546;2023-03-14T03:38:02;10.00;99.90
17986;DHT22;9118;48.122;11.546;2023-03-14T03:40:29;10.10;99.90
17986;DHT22;9118;48.122;11.546;2023-03-14T03:42:57;10.10;99.90
17986;DHT22;9118;48.122;11.546;2023-03-14T03:45:24;10.10;99.90
17986;DHT22;9118;48.122;11.546;2023-03-14T03:47:51;10.10;99.90
17986;DHT22;9118;48.122;11.546;2023-03-14T03:50:18;10.10;99.90
17986;DHT22;9118;48.122;11.546;2023-03-14T03:52:45;10.30;99.90
17986;DHT22;9118;48.122;11.546;2023-03-14T03:55:14;10.00;99.90
17986;DHT22;9118;48.122;11.546;2023-03-14T03:57:41;10.10;99.90
17986;DHT22;9118;48.122;11.546;2023-03-14T04:00:10;10.00;99.90
17986;DHT22;9118;48.122;11.546;2023-03-14T04:02:38;10.00;99.90
17986;DHT22;9118;48.122;11.546;2023-03-14T04:05:05;9.90;99.90
17986;DHT22;9118;48.122;11.546;2023-03-14T04:07:33;10.30;99.90
17986;DHT22;9118;48.122;11.546;2023-03-14T04:10:00;9.90;99.90
17986;DHT22;9118;48.122;11.546;2023-03-14T04:12:28;9.90;99.90
17986;DHT22;9118;48.122;11.546;2023-03-14T04:14:55;9.80;99.90
17986;DHT22;9118;48.122;11.546;2023-03-14T04:17:22;9.80;99.90
17986;DHT22;9118;48.122;11.546;2023-03-14T04:19:50;9.90;99.90
17986;DHT22;9118;48.122;11.546;2023-03-14T04:22:19;9.80;99.90
17986;DHT22;9118;48.122;11.546;2023-03-14T04:24:46;10.00;99.90
17986;DHT22;9118;48.122;11.546;2023-03-14T04:27:13;9.80;99.90
17986;DHT22;9118;48.122;11.546;2023-03-14T04:29:43;9.90;99.90
17986;DHT22;9118;48.122;11.546;2023-03-14T04:32:10;10.20;99.90
17986;DHT22;9118;48.122;11.546;2023-03-14T04:34:38;9.80;99.90
17986;DHT22;9118;48.122;11.546;2023-03-14T04:37:04;9.80;99.90
17986;DHT22;9118;48.122;11.546;2023-03-14T04:39:34;9.80;99.90
17986;DHT22;9118;48.122;11.546;2023-03-14T04:42:01;9.80;99.90
17986;DHT22;9118;48.122;11.546;2023-03-14T04:44:29;9.80;99.90
17986;DHT22;9118;48.122;11.546;2023-03-14T04:46:57;9.70;99.90
17986;DHT22;9118;48.122;11.546;2023-03-14T04:49:25;9.80;99.90
17986;DHT22;9118;48.122;11.546;2023-03-14T04:51:52;9.60;99.90
17986;DHT22;9118;48.122;11.546;2023-03-14T04:54:19;9.70;99.90
17986;DHT22;9118;48.122;11.546;2023-03-14T04:56:46;9.60;99.90
17986;DHT22;9118;48.122;11.546;2023-03-14T04:59:13;9.60;99.90
17986;DHT22;9118;48.122;11.546;2023-03-14T05:01:40;9.40;99.90
17986;DHT22;9118;48.122;11.546;2023-03-14T05:04:09;9.60;99.90
17986;DHT22;9118;48.122;11.546;2023-03-14T05:06:36;9.60;99.90
17986;DHT22;9118;48.122;11.546;2023-03-14T05:09:05;9.60;99.90
17986;DHT22;9118;48.122;11.546;2023-03-14T05:11:32;9.60;99.90
17986;DHT22;9118;48.122;11.546;2023-03-14T05:13:59;9.60;99.90
17986;DHT22;9118;48.122;11.546;2023-03-14T05:16:26;9.80;99.90
17986;DHT22;9118;48.122;11.546;2023-03-14T05:18:53;9.70;99.90
17986;DHT22;9118;48.122;11.546;2023-03-14T05:21:22;9.10;99.90
17986;DHT22;9118;48.122;11.546;2023-03-14T05:23:49;9.60;99.90
17986;DHT22;9118;48.122;11.546;2023-03-14T05:26:16;9.60;99.90
17986;DHT22;9118;48.122;11.546;2023-03-14T05:28:43;9.90;99.90
17986;DHT22;9118;48.122;11.546;2023-03-14T05:31:11;9.70;99.90
17986;DHT22;9118;48.122;11.546;2023-03-14T05:33:38;9.70;99.90
17986;DHT22;9118;48.122;11.546;2023-03-14T05:36:06;9.60;99.90
17986;DHT22;9118;48.122;11.546;2023-03-14T05:38:34;10.10;99.90
17986;DHT22;9118;48.122;11.546;2023-03-14T05:41:01;9.60;99.90
17986;DHT22;9118;48.122;11.546;2023-03-14T05:43:29;9.90;99.90
17986;DHT22;9118;48.122;11.546;2023-03-14T05:45:56;9.60;99.90
17986;DHT22;9118;48.122;11.546;2023-03-14T05:48:23;9.70;99.90
17986;DHT22;9118;48.122;11.546;2023-03-14T05:50:54;9.60;99.90
17986;DHT22;9118;48.122;11.546;2023-03-14T05:53:22;9.60;99.90
17986;DHT22;9118;48.122;11.546;2023-03-14T05:55:52;9.80;99.90
17986;DHT22;9118;48.122;11.546;2023-03-14T05:58:19;9.70;99.90
17986;DHT22;9118;48.122;11.546;2023-03-14T06:00:46;9.70;99.90
17986;DHT22;9118;48.122;11.546;2023-03-14T06:03:13;9.80;99.90
17986;DHT22;9118;48.122;11.546;2023-03-14T06:05:40;9.80;99.90
17986;DHT22;9118;48.122;11.546;2023-03-14T06:08:07;9.60;99.90
17986;DHT22;9118;48.122;11.546;2023-03-14T06:10:35;9.90;99.90
17986;DHT22;9118;48.122;11.546;2023-03-14T06:13:04;9.90;99.90
17986;DHT22;9118;48.122;11.546;2023-03-14T06:15:31;9.80;99.90
17986;DHT22;9118;48.122;11.546;2023-03-14T06:17:59;9.80;99.90
17986;DHT22;9118;48.122;11.546;2023-03-14T06:20:26;10.10;99.90
17986;DHT22;9118;48.122;11.546;2023-03-14T06:22:53;9.80;99.90
17986;DHT22;9118;48.122;11.546;2023-03-14T06:25:20;9.90;99.90
17986;DHT22;9118;48.122;11.546;2023-03-14T06:27:47;10.20;99.90
17986;DHT22;9118;48.122;11.546;2023-03-14T06:30:16;9.90;99.90
17986;DHT22;9118;48.122;11.546;2023-03-14T06:32:43;9.90;99.90
17986;DHT22;9118;48.122;11.546;2023-03-14T06:35:10;10.60;99.90
17986;DHT22;9118;48.122;11.546;2023-03-14T06:37:37;10.30;99.90
17986;DHT22;9118;48.122;11.546;2023-03-14T06:40:06;10.00;99.90
17986;DHT22;9118;48.122;11.546;2023-03-14T06:42:34;10.10;99.90
17986;DHT22;9118;48.122;11.546;2023-03-14T06:45:01;10.30;99.90
17986;DHT22;9118;48.122;11.546;2023-03-14T06:47:30;11.00;99.90
17986;DHT22;9118;48.122;11.546;2023-03-14T06:49:57;10.20;99.90
17986;DHT22;9118;48.122;11.546;2023-03-14T06:52:24;10.00;99.90
17986;DHT22;9118;48.122;11.546;2023-03-14T06:54:51;10.20;99.90
17986;DHT22;9118;48.122;11.546;2023-03-14T06:57:18;10.20;99.90
17986;DHT22;9118;48.122;11.546;2023-03-14T06:59:47;10.60;99.90
17986;DHT22;9118;48.122;11.546;2023-03-14T07:02:14;10.30;99.90
17986;DHT22;9118;48.122;11.546;2023-03-14T07:04:43;10.20;99.90
17986;DHT22;9118;48.122;11.546;2023-03-14T07:07:10;10.30;99.90
17986;DHT22;9118;48.122;11.546;2023-03-14T07:09:37;10.50;99.90
17986;DHT22;9118;48.122;11.546;2023-03-14T07:12:05;10.30;99.90
17986;DHT22;9118;48.122;11.546;2023-03-14T07:14:33;10.50;99.90
17986;DHT22;9118;48.122;11.546;2023-03-14T07:17:00;10.30;99.90
17986;DHT22;9118;48.122;11.546;2023-03-14T07:19:27;10.30;99.90
17986;DHT22;9118;48.122;11.546;2023-03-14T07:21:56;10.20;99.90
17986;DHT22;9118;48.122;11.546;2023-03-14T07:24:23;11.00;99.90
17986;DHT22;9118;48.122;11.546;2023-03-14T07:26:50;10.30;99.90
17986;DHT22;9118;48.122;11.546;2023-03-14T07:29:17;10.30;99.90
17986;DHT22;9118;48.122;11.546;2023-03-14T07:31:44;10.40;99.90
17986;DHT22;9118;48.122;11.546;2023-03-14T07:34:11;10.40;99.90
17986;DHT22;9118;48.122;11.546;2023-03-14T07:36:38;10.50;99.90
17986;DHT22;9118;48.122;11.546;2023-03-14T07:39:07;10.50;99.90
17986;DHT22;9118;48.122;11.546;2023-03-14T07:41:34;10.50;99.90
17986;DHT22;9118;48.122;11.546;2023-03-14T07:44:01;10.20;99.90
17986;DHT22;9118;48.122;11.546;2023-03-14T07:46:28;10.70;99.90
17986;DHT22;9118;48.122;11.546;2023-03-14T07:48:55;10.70;99.90
17986;DHT22;9118;48.122;11.546;2023-03-14T07:51:23;10.80;99.90
17986;DHT22;9118;48.122;11.546;2023-03-14T07:53:49;10.80;99.90
17986;DHT22;9118;48.122;11.546;2023-03-14T07:56:18;11.00;99.90
17986;DHT22;9118;48.122;11.546;2023-03-14T07:58:45;10.90;99.90
17986;DHT22;9118;48.122;11.546;2023-03-14T08:01:12;11.10;99.90
17986;DHT22;9118;48.122;11.546;2023-03-14T08:03:40;11.30;99.90
17986;DHT22;9118;48.122;11.546;2023-03-14T08:06:07;11.00;99.90
17986;DHT22;9118;48.122;11.546;2023-03-14T08:08:34;11.00;99.90
17986;DHT22;9118;48.122;11.546;2023-03-14T08:11:07;11.10;99.90
17986;DHT22;9118;48.122;11.546;2023-03-14T08:13:36;11.20;99.90
17986;DHT22;9118;48.122;11.546;2023-03-14T08:16:04;11.20;99.90
17986;DHT22;9118;48.122;11.546;2023-03-14T08:18:32;11.30;99.90
17986;DHT22;9118;48.122;11.546;2023-03-14T08:20:59;11.70;99.90
17986;DHT22;9118;48.122;11.546;2023-03-14T08:23:26;11.10;99.90
17986;DHT22;9118;48.122;11.546;2023-03-14T08:25:57;11.30;99.90
17986;DHT22;9118;48.122;11.546;2023-03-14T08:28:24;11.40;99.90
17986;DHT22;9118;48.122;11.546;2023-03-14T08:30:57;11.50;99.90
17986;DHT22;9118;48.122;11.546;2023-03-14T08:33:24;11.50;99.90
17986;DHT22;9118;48.122;11.546;2023-03-14T08:35:52;11.50;99.90
17986;DHT22;9118;48.122;11.546;2023-03-14T08:38:19;11.00;99.90
17986;DHT22;9118;48.122;11.546;2023-03-14T08:40:46;11.80;99.90
17986;DHT22;9118;48.122;11.546;2023-03-14T08:43:13;12.30;99.90
17986;DHT22;9118;48.122;11.546;2023-03-14T08:45:40;11.50;99.90
17986;DHT22;9118;48.122;11.546;2023-03-14T08:48:09;11.60;99.90
17986;DHT22;9118;48.122;11.546;2023-03-14T08:50:36;11.50;99.90
17986;DHT22;9118;48.122;11.546;2023-03-14T08:53:04;11.50;99.90
17986;DHT22;9118;48.122;11.546;2023-03-14T08:55:31;11.50;99.90
17986;DHT22;9118;48.122;11.546;2023-03-14T08:57:58;11.50;99.90
17986;DHT22;9118;48.122;11.546;2023-03-14T09:00:25;11.50;99.90
17986;DHT22;9118;48.122;11.546;2023-03-14T09:02:52;11.60;99.90
17986;DHT22;9118;48.122;11.546;2023-03-14T09:05:21;11.60;99.90
17986;DHT22;9118;48.122;11.546;2023-03-14T09:07:48;11.70;99.90
17986;DHT22;9118;48.122;11.546;2023-03-14T09:10:15;11.80;99.90
17986;DHT22;9118;48.122;11.546;2023-03-14T09:12:43;12.00;99.90
17986;DHT22;9118;48.122;11.546;2023-03-14T09:15:10;11.90;99.90
17986;DHT22;9118;48.122;11.546;2023-03-14T09:17:37;11.90;99.90
17986;DHT22;9118;48.122;11.546;2023-03-14T09:20:06;12.00;99.90
17986;DHT22;9118;48.122;11.546;2023-03-14T09:22:36;12.60;99.90
17986;DHT22;9118;48.122;11.546;2023-03-14T09:25:03;12.10;99.90
17986;DHT22;9118;48.122;11.546;2023-03-14T09:27:30;11.80;99.90
17986;DHT22;9118;48.122;11.546;2023-03-14T09:30:00;12.00;99.90
17986;DHT22;9118;48.122;11.546;2023-03-14T09:32:27;12.10;99.90
17986;DHT22;9118;48.122;11.546;2023-03-14T09:34:54;11.90;99.90
17986;DHT22;9118;48.122;11.546;2023-03-14T09:37:22;12.10;99.90
17986;DHT22;9118;48.122;11.546;2023-03-14T09:39:50;11.90;99.90
17986;DHT22;9118;48.122;11.546;2023-03-14T09:42:20;12.30;99.90
17986;DHT22;9118;48.122;11.546;2023-03-14T09:44:53;12.00;99.90
17986;DHT22;9118;48.122;11.546;2023-03-14T09:47:23;12.40;99.90
17986;DHT22;9118;48.122;11.546;2023-03-14T09:49:50;13.10;99.90
17986;DHT22;9118;48.122;11.546;2023-03-14T09:52:21;12.10;99.90
17986;DHT22;9118;48.122;11.546;2023-03-14T09:54:52;12.20;99.90
17986;DHT22;9118;48.122;11.546;2023-03-14T09:57:23;12.50;99.90
17986;DHT22;9118;48.122;11.546;2023-03-14T09:59:51;11.50;99.90
17986;DHT22;9118;48.122;11.546;2023-03-14T10:02:32;12.30;99.90
17986;DHT22;9118;48.122;11.546;2023-03-14T10:05:00;12.30;99.90
17986;DHT22;9118;48.122;11.546;2023-03-14T10:07:29;12.50;99.90
17986;DHT22;9118;48.122;11.546;2023-03-14T10:09:58;12.60;99.90
17986;DHT22;9118;48.122;11.546;2023-03-14T10:12:31;12.70;99.90
17986;DHT22;9118;48.122;11.546;2023-03-14T10:15:02;12.70;99.90
17986;DHT22;9118;48.122;11.546;2023-03-14T10:17:39;12.70;99.90
17986;DHT22;9118;48.122;11.546;2023-03-14T10:20:25;12.90;99.90
17986;DHT22;9118;48.122;11.546;2023-03-14T10:22:58;12.90;99.90
17986;DHT22;9118;48.122;11.546;2023-03-14T10:25:28;12.80;99.90
17986;DHT22;9118;48.122;11.546;2023-03-14T10:27:55;13.00;99.90
17986;DHT22;9118;48.122;11.546;2023-03-14T10:30:39;13.10;99.90
17986;DHT22;9118;48.122;11.546;2023-03-14T10:33:11;13.70;99.90
17986;DHT22;9118;48.122;11.546;2023-03-14T10:35:38;13.40;99.90
17986;DHT22;9118;48.122;11.546;2023-03-14T10:38:10;13.50;99.90
17986;DHT22;9118;48.122;11.546;2023-03-14T10:40:42;13.50;99.90
17986;DHT22;9118;48.122;11.546;2023-03-14T10:43:17;13.50;99.90
17986;DHT22;9118;48.122;11.546;2023-03-14T10:45:52;13.60;99.90
17986;DHT22;9118;48.122;11.546;2023-03-14T10:48:29;13.70;99.90
17986;DHT22;9118;48.122;11.546;2023-03-14T10:51:02;13.60;99.90
17986;DHT22;9118;48.122;11.546;2023-03-14T10:53:34;13.50;99.90
17986;DHT22;9118;48.122;11.546;2023-03-14T10:56:07;13.40;99.90
17986;DHT22;9118;48.122;11.546;2023-03-14T10:58:40;13.30;99.90
17986;DHT22;9118;48.122;11.546;2023-03-14T11:04:06;13.50;99.90
17986;DHT22;9118;48.122;11.546;2023-03-14T11:06:42;13.50;99.90
17986;DHT22;9118;48.122;11.546;2023-03-14T11:09:15;14.00;99.90
17986;DHT22;9118;48.122;11.546;2023-03-14T11:11:47;14.30;99.90
17986;DHT22;9118;48.122;11.546;2023-03-14T11:14:20;13.60;99.90
17986;DHT22;9118;48.122;11.546;2023-03-14T11:16:54;13.40;99.90
17986;DHT22;9118;48.122;11.546;2023-03-14T11:22:44;13.50;99.90
17986;DHT22;9118;48.122;11.546;2023-03-14T11:25:21;13.70;99.90
17986;DHT22;9118;48.122;11.546;2023-03-14T11:27:59;13.70;99.90
17986;DHT22;9118;48.122;11.546;2023-03-14T11:30:34;13.70;99.90
17986;DHT22;9118;48.122;11.546;2023-03-14T11:33:04;13.60;99.90
17986;DHT22;9118;48.122;11.546;2023-03-14T11:35:37;13.30;99.90
17986;DHT22;9118;48.122;11.546;2023-03-14T11:38:14;14.10;99.90
17986;DHT22;9118;48.122;11.546;2023-03-14T11:40:43;14.40;99.90
17986;DHT22;9118;48.122;11.546;2023-03-14T11:43:16;14.20;99.90
17986;DHT22;9118;48.122;11.546;2023-03-14T11:45:47;13.80;99.90
17986;DHT22;9118;48.122;11.546;2023-03-14T11:48:23;13.70;99.90
17986;DHT22;9118;48.122;11.546;2023-03-14T11:50:52;13.40;99.90
17986;DHT22;9118;48.122;11.546;2023-03-14T11:53:26;13.20;99.90
17986;DHT22;9118;48.122;11.546;2023-03-14T11:55:57;13.00;99.90
17986;DHT22;9118;48.122;11.546;2023-03-14T11:58:29;13.00;99.90
17986;DHT22;9118;48.122;11.546;2023-03-14T12:01:02;13.10;99.90
17986;DHT22;9118;48.122;11.546;2023-03-14T12:03:39;12.90;99.90
17986;DHT22;9118;48.122;11.546;2023-03-14T12:06:15;13.10;99.90
17986;DHT22;9118;48.122;11.546;2023-03-14T12:08:48;13.20;99.90
17986;DHT22;9118;48.122;11.546;2023-03-14T12:11:26;13.40;99.90
17986;DHT22;9118;48.122;11.546;2023-03-14T12:13:56;13.50;99.90
17986;DHT22;9118;48.122;11.546;2023-03-14T12:16:33;13.50;99.90
17986;DHT22;9118;48.122;11.546;2023-03-14T12:19:35;13.50;99.90
17986;DHT22;9118;48.122;11.546;2023-03-14T12:22:27;13.40;99.90
17986;DHT22;9118;48.122;11.546;2023-03-14T12:25:02;13.50;99.90
17986;DHT22;9118;48.122;11.546;2023-03-14T12:30:39;13.60;99.90
17986;DHT22;9118;48.122;11.546;2023-03-14T12:33:31;13.40;99.90
17986;DHT22;9118;48.122;11.546;2023-03-14T12:36:05;13.20;99.90
17986;DHT22;9118;48.122;11.546;2023-03-14T12:38:46;13.50;99.90
17986;DHT22;9118;48.122;11.546;2023-03-14T12:41:17;13.20;99.90
17986;DHT22;9118;48.122;11.546;2023-03-14T12:43:46;14.10;99.90
17986;DHT22;9118;48.122;11.546;2023-03-14T12:46:23;13.40;99.90
17986;DHT22;9118;48.122;11.546;2023-03-14T12:48:55;13.50;99.90
17986;DHT22;9118;48.122;11.546;2023-03-14T12:51:29;13.60;99.90
17986;DHT22;9118;48.122;11.546;2023-03-14T12:57:06;13.40;99.90
17986;DHT22;9118;48.122;11.546;2023-03-14T12:59:37;13.40;99.90
17986;DHT22;9118;48.122;11.546;2023-03-14T13:02:26;13.70;99.90
17986;DHT22;9118;48.122;11.546;2023-03-14T13:05:01;13.40;99.90
17986;DHT22;9118;48.122;11.546;2023-03-14T13:07:32;13.30;99.90
17986;DHT22;9118;48.122;11.546;2023-03-14T13:10:18;13.20;99.90
17986;DHT22;9118;48.122;11.546;2023-03-14T13:12:51;13.10;99.90
17986;DHT22;9118;48.122;11.546;2023-03-14T13:15:21;13.00;99.90
17986;DHT22;9118;48.122;11.546;2023-03-14T13:17:52;12.80;99.90
17986;DHT22;9118;48.122;11.546;2023-03-14T13:20:26;13.10;99.90
17986;DHT22;9118;48.122;11.546;2023-03-14T13:22:55;13.10;99.90
17986;DHT22;9118;48.122;11.546;2023-03-14T13:25:22;13.20;99.90
17986;DHT22;9118;48.122;11.546;2023-03-14T13:27:52;12.70;99.90
17986;DHT22;9118;48.122;11.546;2023-03-14T13:30:25;12.70;99.90
17986;DHT22;9118;48.122;11.546;2023-03-14T13:32:55;13.00;99.90
17986;DHT22;9118;48.122;11.546;2023-03-14T13:35:24;12.40;99.90
17986;DHT22;9118;48.122;11.546;2023-03-14T13:37:56;12.30;99.90
17986;DHT22;9118;48.122;11.546;2023-03-14T13:40:26;12.00;99.90
17986;DHT22;9118;48.122;11.546;2023-03-14T13:43:04;12.10;99.90
17986;DHT22;9118;48.122;11.546;2023-03-14T13:45:51;12.20;99.90
17986;DHT22;9118;48.122;11.546;2023-03-14T13:48:21;11.80;99.90
17986;DHT22;9118;48.122;11.546;2023-03-14T13:50:54;11.60;99.90
17986;DHT22;9118;48.122;11.546;2023-03-14T13:53:22;11.60;99.90
17986;DHT22;9118;48.122;11.546;2023-03-14T13:55:50;11.50;99.90
17986;DHT22;9118;48.122;11.546;2023-03-14T13:58:25;11.60;99.90
17986;DHT22;9118;48.122;11.546;2023-03-14T14:01:02;11.00;99.90
17986;DHT22;9118;48.122;11.546;2023-03-14T14:03:34;10.70;99.90
17986;DHT22;9118;48.122;11.546;2023-03-14T14:06:04;10.60;99.90
17986;DHT22;9118;48.122;11.546;2023-03-14T14:08:36;9.60;99.90
17986;DHT22;9118;48.122;11.546;2023-03-14T14:11:06;10.80;99.90
17986;DHT22;9118;48.122;11.546;2023-03-14T14:13:35;10.50;99.90
17986;DHT22;9118;48.122;11.546;2023-03-14T14:16:04;10.40;99.90
17986;DHT22;9118;48.122;11.546;2023-03-14T14:18:33;10.30;99.90
17986;DHT22;9118;48.122;11.546;2023-03-14T14:21:02;10.90;99.90
17986;DHT22;9118;48.122;11.546;2023-03-14T14:23:29;9.90;99.90
17986;DHT22;9118;48.122;11.546;2023-03-14T14:25:58;9.80;99.90
17986;DHT22;9118;48.122;11.546;2023-03-14T14:28:27;9.40;99.90
17986;DHT22;9118;48.122;11.546;2023-03-14T14:31:03;9.20;99.90
17986;DHT22;9118;48.122;11.546;2023-03-14T14:33:40;9.20;99.90
17986;DHT22;9118;48.122;11.546;2023-03-14T14:36:19;9.20;99.90
17986;DHT22;9118;48.122;11.546;2023-03-14T14:38:52;9.30;99.90
17986;DHT22;9118;48.122;11.546;2023-03-14T14:41:20;9.40;99.90
17986;DHT22;9118;48.122;11.546;2023-03-14T14:43:48;8.60;99.90
17986;DHT22;9118;48.122;11.546;2023-03-14T14:46:18;8.50;99.90
17986;DHT22;9118;48.122;11.546;2023-03-14T14:48:48;8.60;99.90
17986;DHT22;9118;48.122;11.546;2023-03-14T14:51:25;8.70;99.90
17986;DHT22;9118;48.122;11.546;2023-03-14T14:54:04;8.70;99.90
17986;DHT22;9118;48.122;11.546;2023-03-14T14:56:37;8.90;99.90
17986;DHT22;9118;48.122;11.546;2023-03-14T14:59:05;8.30;99.90
17986;DHT22;9118;48.122;11.546;2023-03-14T15:01:34;8.60;99.90
17986;DHT22;9118;48.122;11.546;2023-03-14T15:04:04;8.90;99.90
17986;DHT22;9118;48.122;11.546;2023-03-14T15:06:38;8.50;99.90
17986;DHT22;9118;48.122;11.546;2023-03-14T15:09:05;8.70;99.90
17986;DHT22;9118;48.122;11.546;2023-03-14T15:11:32;9.00;99.90
17986;DHT22;9118;48.122;11.546;2023-03-14T15:13:59;8.80;99.90
17986;DHT22;9118;48.122;11.546;2023-03-14T15:16:28;9.10;99.90
17986;DHT22;9118;48.122;11.546;2023-03-14T15:18:57;9.20;99.90
17986;DHT22;9118;48.122;11.546;2023-03-14T15:21:27;9.60;99.90
17986;DHT22;9118;48.122;11.546;2023-03-14T15:23:55;9.30;99.90
17986;DHT22;9118;48.122;11.546;2023-03-14T15:26:23;9.20;99.90
17986;DHT22;9118;48.122;11.546;2023-03-14T15:28:51;9.20;99.90
17986;DHT22;9118;48.122;11.546;2023-03-14T15:31:19;9.10;99.90
17986;DHT22;9118;48.122;11.546;2023-03-14T15:33:47;9.10;99.90
17986;DHT22;9118;48.122;11.546;2023-03-14T15:36:20;9.10;99.90
17986;DHT22;9118;48.122;11.546;2023-03-14T15:38:50;8.80;99.90
17986;DHT22;9118;48.122;11.546;2023-03-14T15:41:18;8.70;99.90
17986;DHT22;9118;48.122;11.546;2023-03-14T15:43:45;8.50;99.90
17986;DHT22;9118;48.122;11.546;2023-03-14T15:46:13;8.30;99.90
17986;DHT22;9118;48.122;11.546;2023-03-14T15:48:42;8.20;99.90
17986;DHT22;9118;48.122;11.546;2023-03-14T15:51:09;7.30;99.90
17986;DHT22;9118;48.122;11.546;2023-03-14T15:53:37;7.50;99.90
17986;DHT22;9118;48.122;11.546;2023-03-14T15:56:16;7.50;99.90
17986;DHT22;9118;48.122;11.546;2023-03-14T15:58:44;8.30;99.90
17986;DHT22;9118;48.122;11.546;2023-03-14T16:01:13;7.10;99.90
17986;DHT22;9118;48.122;11.546;2023-03-14T16:03:41;6.70;99.90